IE-0005 weather

Eyne Airfield
Eyne, County Laois, Ireland

Public forecast

Using degrees Celsius for public forecast. Weather courtesy of forecast.io.

METAR (pilot weather report)

Closest report is Casement Air Base, 32.5 nm (60.2 km) ENE. Retrieved 2019/06/26 03:00 UTC (55 minutes ago):

EIME 260300Z 06006KT 030V090 7000 BKN005 13/12 Q1027

TAF (pilot weather forecast)

Forecast is more than 12 hours old.

Closest forecast is Dublin Airport, 41.5 nm (76.9 km) ENE. Retrieved 2019/06/25 00:11 UTC (1 day ago):

TAF EIDW 252300Z 2600/2624 03007KT 9999 FEW020 PROB30 TEMPO 2600/2605 4000 BR BKN013 PROB40 TEMPO 2605/2609 BKN012 BECMG 2610/2613 06011KT